Central Virginia Flyers


Central Virginia Flyers is a 10 member flying club based in Richmond, VA at Hanover County Airport (KOFP). We own N787AT, a 1977 Cessna 172 with 180hp conversion. If you are interested in membership, please contact Brenton at [email protected]


Aviation Digital Data Service (ADDS)

Output produced by METARs form (1003 UTC 26 June 2016)
found at http://aviationweather.gov/adds/metars/
 
KOFP 260954Z AUTO 00000KT 1 1/4SM BR CLR 15/14 A3025 RMK AO2 SLP241 T01500139
KRIC 260954Z 00000KT 4SM BR BKN300 18/17 A3022 RMK AO2 SLP238 T01780167
KRIC 260529Z 2606/2706 VRB02KT P6SM SKC 
     FM261400 08006KT P6SM SKC 
     FM262000 13007KT P6SM SKC 
     FM270000 13003KT P6SM SKC